sensor_id;sensor_type;location;lat;lon;timestamp;temperature;humidity
20714;DHT22;10518;50.742;4.226;2023-04-06T00:00:59;8.50;99.90
20714;DHT22;10518;50.742;4.226;2023-04-06T00:03:25;8.50;99.90
20714;DHT22;10518;50.742;4.226;2023-04-06T00:05:50;8.50;99.90
20714;DHT22;10518;50.742;4.226;2023-04-06T00:08:16;8.50;99.90
20714;DHT22;10518;50.742;4.226;2023-04-06T00:10:42;8.50;99.90
20714;DHT22;10518;50.742;4.226;2023-04-06T00:13:08;8.50;99.90
20714;DHT22;10518;50.742;4.226;2023-04-06T00:15:33;8.40;99.90
20714;DHT22;10518;50.742;4.226;2023-04-06T00:18:00;8.40;99.90
20714;DHT22;10518;50.742;4.226;2023-04-06T00:20:26;8.40;99.90
20714;DHT22;10518;50.742;4.226;2023-04-06T00:22:51;8.40;99.90
20714;DHT22;10518;50.742;4.226;2023-04-06T00:25:17;8.40;99.90
20714;DHT22;10518;50.742;4.226;2023-04-06T00:27:43;8.40;99.90
20714;DHT22;10518;50.742;4.226;2023-04-06T00:30:09;8.30;99.90
20714;DHT22;10518;50.742;4.226;2023-04-06T00:32:35;8.30;99.90
20714;DHT22;10518;50.742;4.226;2023-04-06T00:35:05;8.30;99.90
20714;DHT22;10518;50.742;4.226;2023-04-06T00:37:31;8.30;99.90
20714;DHT22;10518;50.742;4.226;2023-04-06T00:39:57;8.30;99.90
20714;DHT22;10518;50.742;4.226;2023-04-06T00:42:23;8.40;99.90
20714;DHT22;10518;50.742;4.226;2023-04-06T00:44:53;8.40;99.90
20714;DHT22;10518;50.742;4.226;2023-04-06T00:47:20;8.30;99.90
20714;DHT22;10518;50.742;4.226;2023-04-06T00:49:46;8.30;99.90
20714;DHT22;10518;50.742;4.226;2023-04-06T00:52:11;8.20;99.90
20714;DHT22;10518;50.742;4.226;2023-04-06T00:54:37;8.20;99.90
20714;DHT22;10518;50.742;4.226;2023-04-06T00:57:02;8.30;99.90
20714;DHT22;10518;50.742;4.226;2023-04-06T00:59:28;8.30;99.90
20714;DHT22;10518;50.742;4.226;2023-04-06T01:01:54;8.20;99.90
20714;DHT22;10518;50.742;4.226;2023-04-06T01:04:20;8.10;99.90
20714;DHT22;10518;50.742;4.226;2023-04-06T01:06:48;8.00;99.90
20714;DHT22;10518;50.742;4.226;2023-04-06T01:09:14;8.20;99.90
20714;DHT22;10518;50.742;4.226;2023-04-06T01:11:40;8.20;99.90
20714;DHT22;10518;50.742;4.226;2023-04-06T01:14:06;8.10;99.90
20714;DHT22;10518;50.742;4.226;2023-04-06T01:16:32;7.90;99.90
20714;DHT22;10518;50.742;4.226;2023-04-06T01:18:57;7.80;99.90
20714;DHT22;10518;50.742;4.226;2023-04-06T01:21:23;7.80;99.90
20714;DHT22;10518;50.742;4.226;2023-04-06T01:23:49;7.70;99.90
20714;DHT22;10518;50.742;4.226;2023-04-06T01:26:14;7.60;99.90
20714;DHT22;10518;50.742;4.226;2023-04-06T01:28:40;7.60;99.90
20714;DHT22;10518;50.742;4.226;2023-04-06T01:31:08;7.50;99.90
20714;DHT22;10518;50.742;4.226;2023-04-06T01:33:34;7.50;99.90
20714;DHT22;10518;50.742;4.226;2023-04-06T01:36:00;7.40;99.90
20714;DHT22;10518;50.742;4.226;2023-04-06T01:38:26;7.40;99.90
20714;DHT22;10518;50.742;4.226;2023-04-06T01:40:52;7.30;99.90
20714;DHT22;10518;50.742;4.226;2023-04-06T01:43:18;7.30;99.90
20714;DHT22;10518;50.742;4.226;2023-04-06T01:45:44;7.30;99.90
20714;DHT22;10518;50.742;4.226;2023-04-06T01:48:09;7.20;99.90
20714;DHT22;10518;50.742;4.226;2023-04-06T01:50:35;7.30;99.90
20714;DHT22;10518;50.742;4.226;2023-04-06T01:53:01;7.30;99.90
20714;DHT22;10518;50.742;4.226;2023-04-06T01:55:27;7.30;99.90
20714;DHT22;10518;50.742;4.226;2023-04-06T01:57:52;7.30;99.90
20714;DHT22;10518;50.742;4.226;2023-04-06T02:00:18;7.30;99.90
20714;DHT22;10518;50.742;4.226;2023-04-06T02:02:44;7.30;99.90
20714;DHT22;10518;50.742;4.226;2023-04-06T02:05:10;7.30;99.90
20714;DHT22;10518;50.742;4.226;2023-04-06T02:07:35;7.30;99.90
20714;DHT22;10518;50.742;4.226;2023-04-06T02:10:02;7.30;99.90
20714;DHT22;10518;50.742;4.226;2023-04-06T02:12:27;7.30;99.90
20714;DHT22;10518;50.742;4.226;2023-04-06T02:14:53;7.20;99.90
20714;DHT22;10518;50.742;4.226;2023-04-06T02:17:18;7.30;99.90
20714;DHT22;10518;50.742;4.226;2023-04-06T02:19:44;7.30;99.90
20714;DHT22;10518;50.742;4.226;2023-04-06T02:22:10;7.30;99.90
20714;DHT22;10518;50.742;4.226;2023-04-06T02:24:36;7.20;99.90
20714;DHT22;10518;50.742;4.226;2023-04-06T02:27:02;7.30;99.90
20714;DHT22;10518;50.742;4.226;2023-04-06T02:29:27;7.30;99.90
20714;DHT22;10518;50.742;4.226;2023-04-06T02:31:53;7.40;99.90
20714;DHT22;10518;50.742;4.226;2023-04-06T02:34:19;7.40;99.90
20714;DHT22;10518;50.742;4.226;2023-04-06T02:36:45;7.60;99.90
20714;DHT22;10518;50.742;4.226;2023-04-06T02:39:11;7.60;99.90
20714;DHT22;10518;50.742;4.226;2023-04-06T02:41:38;7.70;99.90
20714;DHT22;10518;50.742;4.226;2023-04-06T02:44:05;7.70;99.90
20714;DHT22;10518;50.742;4.226;2023-04-06T02:46:31;7.60;99.90
20714;DHT22;10518;50.742;4.226;2023-04-06T02:48:57;7.60;99.90
20714;DHT22;10518;50.742;4.226;2023-04-06T02:51:26;7.60;99.90
20714;DHT22;10518;50.742;4.226;2023-04-06T02:53:51;7.50;99.90
20714;DHT22;10518;50.742;4.226;2023-04-06T02:56:17;7.50;99.90
20714;DHT22;10518;50.742;4.226;2023-04-06T02:58:42;7.50;99.90
20714;DHT22;10518;50.742;4.226;2023-04-06T03:01:08;7.50;99.90
20714;DHT22;10518;50.742;4.226;2023-04-06T03:03:34;7.50;99.90
20714;DHT22;10518;50.742;4.226;2023-04-06T03:06:00;7.40;99.90
20714;DHT22;10518;50.742;4.226;2023-04-06T03:08:25;7.40;99.90
20714;DHT22;10518;50.742;4.226;2023-04-06T03:10:51;7.40;99.90
20714;DHT22;10518;50.742;4.226;2023-04-06T03:13:17;7.40;99.90
20714;DHT22;10518;50.742;4.226;2023-04-06T03:15:42;7.40;99.90
20714;DHT22;10518;50.742;4.226;2023-04-06T03:18:08;7.40;99.90
20714;DHT22;10518;50.742;4.226;2023-04-06T03:20:33;7.60;99.90
20714;DHT22;10518;50.742;4.226;2023-04-06T03:22:59;7.80;99.90
20714;DHT22;10518;50.742;4.226;2023-04-06T03:25:25;7.80;99.90
20714;DHT22;10518;50.742;4.226;2023-04-06T03:27:50;7.80;99.90
20714;DHT22;10518;50.742;4.226;2023-04-06T03:30:16;7.90;99.90
20714;DHT22;10518;50.742;4.226;2023-04-06T03:32:43;8.10;99.90
20714;DHT22;10518;50.742;4.226;2023-04-06T03:35:09;8.20;99.90
20714;DHT22;10518;50.742;4.226;2023-04-06T03:37:35;8.30;99.90
20714;DHT22;10518;50.742;4.226;2023-04-06T03:40:02;8.40;99.90
20714;DHT22;10518;50.742;4.226;2023-04-06T03:42:28;8.60;99.90
20714;DHT22;10518;50.742;4.226;2023-04-06T03:44:53;8.60;99.90
20714;DHT22;10518;50.742;4.226;2023-04-06T03:47:19;8.50;99.90
20714;DHT22;10518;50.742;4.226;2023-04-06T03:49:45;8.30;99.90
20714;DHT22;10518;50.742;4.226;2023-04-06T03:52:11;8.20;99.90
20714;DHT22;10518;50.742;4.226;2023-04-06T03:54:36;8.10;99.90
20714;DHT22;10518;50.742;4.226;2023-04-06T03:57:03;8.00;99.90
20714;DHT22;10518;50.742;4.226;2023-04-06T03:59:29;8.10;99.90
20714;DHT22;10518;50.742;4.226;2023-04-06T04:01:55;8.10;99.90
20714;DHT22;10518;50.742;4.226;2023-04-06T04:04:21;8.20;99.90
20714;DHT22;10518;50.742;4.226;2023-04-06T04:06:46;8.10;99.90
20714;DHT22;10518;50.742;4.226;2023-04-06T04:09:12;8.00;99.90
20714;DHT22;10518;50.742;4.226;2023-04-06T04:11:38;7.90;99.90
20714;DHT22;10518;50.742;4.226;2023-04-06T04:14:03;7.90;99.90
20714;DHT22;10518;50.742;4.226;2023-04-06T04:16:29;7.90;99.90
20714;DHT22;10518;50.742;4.226;2023-04-06T04:18:55;8.10;99.90
20714;DHT22;10518;50.742;4.226;2023-04-06T04:21:21;8.30;99.90
20714;DHT22;10518;50.742;4.226;2023-04-06T04:23:46;8.10;99.90
20714;DHT22;10518;50.742;4.226;2023-04-06T04:26:12;8.00;99.90
20714;DHT22;10518;50.742;4.226;2023-04-06T04:28:38;8.00;99.90
20714;DHT22;10518;50.742;4.226;2023-04-06T04:31:03;8.10;99.90
20714;DHT22;10518;50.742;4.226;2023-04-06T04:33:29;8.50;99.90
20714;DHT22;10518;50.742;4.226;2023-04-06T04:35:54;8.70;99.90
20714;DHT22;10518;50.742;4.226;2023-04-06T04:38:20;8.80;99.90
20714;DHT22;10518;50.742;4.226;2023-04-06T04:40:46;9.10;99.90
20714;DHT22;10518;50.742;4.226;2023-04-06T04:43:11;9.00;99.90
20714;DHT22;10518;50.742;4.226;2023-04-06T04:45:37;9.00;99.90
20714;DHT22;10518;50.742;4.226;2023-04-06T04:48:03;8.90;99.90
20714;DHT22;10518;50.742;4.226;2023-04-06T04:50:31;9.00;99.90
20714;DHT22;10518;50.742;4.226;2023-04-06T04:52:57;8.90;99.90
20714;DHT22;10518;50.742;4.226;2023-04-06T04:55:22;8.80;99.90
20714;DHT22;10518;50.742;4.226;2023-04-06T04:57:48;8.60;99.90
20714;DHT22;10518;50.742;4.226;2023-04-06T05:00:14;8.40;99.90
20714;DHT22;10518;50.742;4.226;2023-04-06T05:02:39;8.30;99.90
20714;DHT22;10518;50.742;4.226;2023-04-06T05:05:05;8.20;99.90
20714;DHT22;10518;50.742;4.226;2023-04-06T05:07:31;8.20;99.90
20714;DHT22;10518;50.742;4.226;2023-04-06T05:09:57;8.10;99.90
20714;DHT22;10518;50.742;4.226;2023-04-06T05:12:22;8.20;99.90
20714;DHT22;10518;50.742;4.226;2023-04-06T05:14:48;8.20;99.90
20714;DHT22;10518;50.742;4.226;2023-04-06T05:17:14;8.40;99.90
20714;DHT22;10518;50.742;4.226;2023-04-06T05:19:39;8.40;99.90
20714;DHT22;10518;50.742;4.226;2023-04-06T05:22:05;8.40;99.90
20714;DHT22;10518;50.742;4.226;2023-04-06T05:24:31;8.40;99.90
20714;DHT22;10518;50.742;4.226;2023-04-06T05:26:57;8.30;99.90
20714;DHT22;10518;50.742;4.226;2023-04-06T05:29:22;8.30;99.90
20714;DHT22;10518;50.742;4.226;2023-04-06T05:31:48;8.40;99.90
20714;DHT22;10518;50.742;4.226;2023-04-06T05:34:13;8.40;99.90
20714;DHT22;10518;50.742;4.226;2023-04-06T05:36:39;8.40;99.90
20714;DHT22;10518;50.742;4.226;2023-04-06T05:39:06;8.50;99.90
20714;DHT22;10518;50.742;4.226;2023-04-06T05:41:32;8.60;99.90
20714;DHT22;10518;50.742;4.226;2023-04-06T05:43:58;8.70;99.90
20714;DHT22;10518;50.742;4.226;2023-04-06T05:46:23;8.70;99.90
20714;DHT22;10518;50.742;4.226;2023-04-06T05:48:49;8.60;99.90
20714;DHT22;10518;50.742;4.226;2023-04-06T05:51:15;8.80;99.90
20714;DHT22;10518;50.742;4.226;2023-04-06T05:53:40;8.90;99.90
20714;DHT22;10518;50.742;4.226;2023-04-06T05:56:06;8.80;99.90
20714;DHT22;10518;50.742;4.226;2023-04-06T05:58:32;9.00;99.90
20714;DHT22;10518;50.742;4.226;2023-04-06T06:01:01;9.10;99.90
20714;DHT22;10518;50.742;4.226;2023-04-06T06:03:28;9.10;99.90
20714;DHT22;10518;50.742;4.226;2023-04-06T06:05:59;9.10;99.90
20714;DHT22;10518;50.742;4.226;2023-04-06T06:08:25;9.30;99.90
20714;DHT22;10518;50.742;4.226;2023-04-06T06:10:51;9.30;99.90
20714;DHT22;10518;50.742;4.226;2023-04-06T06:13:16;9.60;99.90
20714;DHT22;10518;50.742;4.226;2023-04-06T06:15:42;9.80;99.90
20714;DHT22;10518;50.742;4.226;2023-04-06T06:18:08;9.60;99.90
20714;DHT22;10518;50.742;4.226;2023-04-06T06:20:33;9.40;99.90
20714;DHT22;10518;50.742;4.226;2023-04-06T06:22:59;9.40;99.90
20714;DHT22;10518;50.742;4.226;2023-04-06T06:25:24;9.50;99.90
20714;DHT22;10518;50.742;4.226;2023-04-06T06:27:50;9.40;99.90
20714;DHT22;10518;50.742;4.226;2023-04-06T06:30:16;9.40;99.90
20714;DHT22;10518;50.742;4.226;2023-04-06T06:32:42;9.30;99.90
20714;DHT22;10518;50.742;4.226;2023-04-06T06:35:07;9.30;99.90
20714;DHT22;10518;50.742;4.226;2023-04-06T06:37:33;9.40;99.90
20714;DHT22;10518;50.742;4.226;2023-04-06T06:39:59;9.50;99.90
20714;DHT22;10518;50.742;4.226;2023-04-06T06:42:24;9.50;99.90
20714;DHT22;10518;50.742;4.226;2023-04-06T06:44:51;9.90;99.90
20714;DHT22;10518;50.742;4.226;2023-04-06T06:47:16;10.10;99.90
20714;DHT22;10518;50.742;4.226;2023-04-06T06:49:42;10.00;99.90
20714;DHT22;10518;50.742;4.226;2023-04-06T06:52:08;9.70;99.90
20714;DHT22;10518;50.742;4.226;2023-04-06T06:54:33;9.90;99.90
20714;DHT22;10518;50.742;4.226;2023-04-06T06:56:59;9.80;99.90
20714;DHT22;10518;50.742;4.226;2023-04-06T06:59:25;9.50;99.90
20714;DHT22;10518;50.742;4.226;2023-04-06T07:01:51;9.60;99.90
20714;DHT22;10518;50.742;4.226;2023-04-06T07:04:17;9.40;99.90
20714;DHT22;10518;50.742;4.226;2023-04-06T07:06:42;9.40;99.90
20714;DHT22;10518;50.742;4.226;2023-04-06T07:09:08;9.70;99.90
20714;DHT22;10518;50.742;4.226;2023-04-06T07:11:34;9.70;99.90
20714;DHT22;10518;50.742;4.226;2023-04-06T07:13:59;9.90;99.90
20714;DHT22;10518;50.742;4.226;2023-04-06T07:16:25;10.00;99.90
20714;DHT22;10518;50.742;4.226;2023-04-06T07:18:50;10.00;99.90
20714;DHT22;10518;50.742;4.226;2023-04-06T07:21:16;9.90;99.90
20714;DHT22;10518;50.742;4.226;2023-04-06T07:23:42;9.80;99.90
20714;DHT22;10518;50.742;4.226;2023-04-06T07:26:07;9.80;99.90
20714;DHT22;10518;50.742;4.226;2023-04-06T07:28:33;9.70;99.90
20714;DHT22;10518;50.742;4.226;2023-04-06T07:30:59;9.80;99.90
20714;DHT22;10518;50.742;4.226;2023-04-06T07:33:24;9.90;99.90
20714;DHT22;10518;50.742;4.226;2023-04-06T07:35:55;9.80;99.90
20714;DHT22;10518;50.742;4.226;2023-04-06T07:38:20;9.90;99.90
20714;DHT22;10518;50.742;4.226;2023-04-06T07:40:46;9.80;99.90
20714;DHT22;10518;50.742;4.226;2023-04-06T07:43:12;9.80;99.90
20714;DHT22;10518;50.742;4.226;2023-04-06T07:45:37;9.90;99.90
20714;DHT22;10518;50.742;4.226;2023-04-06T07:48:03;10.20;99.90
20714;DHT22;10518;50.742;4.226;2023-04-06T07:50:29;10.10;99.90
20714;DHT22;10518;50.742;4.226;2023-04-06T07:52:54;10.10;99.90
20714;DHT22;10518;50.742;4.226;2023-04-06T07:55:20;10.00;99.90
20714;DHT22;10518;50.742;4.226;2023-04-06T07:57:46;9.90;99.90
20714;DHT22;10518;50.742;4.226;2023-04-06T08:00:13;9.90;99.90
20714;DHT22;10518;50.742;4.226;2023-04-06T08:02:39;10.10;99.90
20714;DHT22;10518;50.742;4.226;2023-04-06T08:05:05;9.80;99.90
20714;DHT22;10518;50.742;4.226;2023-04-06T08:07:31;9.80;99.90
20714;DHT22;10518;50.742;4.226;2023-04-06T08:09:56;10.00;99.90
20714;DHT22;10518;50.742;4.226;2023-04-06T08:12:22;10.00;99.90
20714;DHT22;10518;50.742;4.226;2023-04-06T08:14:48;9.60;99.90
20714;DHT22;10518;50.742;4.226;2023-04-06T08:17:13;9.50;99.90
20714;DHT22;10518;50.742;4.226;2023-04-06T08:19:39;9.60;99.90
20714;DHT22;10518;50.742;4.226;2023-04-06T08:22:05;9.70;99.90
20714;DHT22;10518;50.742;4.226;2023-04-06T08:24:30;9.90;99.90
20714;DHT22;10518;50.742;4.226;2023-04-06T08:26:57;9.90;99.90
20714;DHT22;10518;50.742;4.226;2023-04-06T08:29:23;9.90;99.90
20714;DHT22;10518;50.742;4.226;2023-04-06T08:31:49;9.70;99.90
20714;DHT22;10518;50.742;4.226;2023-04-06T08:34:14;9.70;99.90
20714;DHT22;10518;50.742;4.226;2023-04-06T08:36:41;9.70;99.90
20714;DHT22;10518;50.742;4.226;2023-04-06T08:39:07;9.70;99.90
20714;DHT22;10518;50.742;4.226;2023-04-06T08:41:32;9.80;99.90
20714;DHT22;10518;50.742;4.226;2023-04-06T08:44:01;9.80;99.90
20714;DHT22;10518;50.742;4.226;2023-04-06T08:46:29;9.70;99.90
20714;DHT22;10518;50.742;4.226;2023-04-06T08:49:03;9.80;99.90
20714;DHT22;10518;50.742;4.226;2023-04-06T08:51:32;9.80;99.90
20714;DHT22;10518;50.742;4.226;2023-04-06T08:53:59;9.80;99.90
20714;DHT22;10518;50.742;4.226;2023-04-06T08:56:27;9.90;99.90
20714;DHT22;10518;50.742;4.226;2023-04-06T08:58:54;10.10;99.90
20714;DHT22;10518;50.742;4.226;2023-04-06T09:01:22;10.30;99.90
20714;DHT22;10518;50.742;4.226;2023-04-06T09:03:49;10.40;99.90
20714;DHT22;10518;50.742;4.226;2023-04-06T09:06:16;10.30;99.90
20714;DHT22;10518;50.742;4.226;2023-04-06T09:08:42;10.30;99.90
20714;DHT22;10518;50.742;4.226;2023-04-06T09:11:08;10.30;99.90
20714;DHT22;10518;50.742;4.226;2023-04-06T09:16:12;10.10;99.90
20714;DHT22;10518;50.742;4.226;2023-04-06T09:18:38;10.00;99.90
20714;DHT22;10518;50.742;4.226;2023-04-06T09:21:05;10.10;99.90
20714;DHT22;10518;50.742;4.226;2023-04-06T09:23:31;10.10;99.90
20714;DHT22;10518;50.742;4.226;2023-04-06T09:26:17;10.20;99.90
20714;DHT22;10518;50.742;4.226;2023-04-06T09:28:50;10.00;99.90
20714;DHT22;10518;50.742;4.226;2023-04-06T09:31:24;10.00;99.90
20714;DHT22;10518;50.742;4.226;2023-04-06T09:33:51;10.00;99.90
20714;DHT22;10518;50.742;4.226;2023-04-06T09:36:17;9.90;99.90
20714;DHT22;10518;50.742;4.226;2023-04-06T09:38:58;10.10;99.90
20714;DHT22;10518;50.742;4.226;2023-04-06T09:41:25;10.20;99.90
20714;DHT22;10518;50.742;4.226;2023-04-06T09:43:52;10.30;99.90
20714;DHT22;10518;50.742;4.226;2023-04-06T09:46:21;10.30;99.90
20714;DHT22;10518;50.742;4.226;2023-04-06T09:48:47;10.10;99.90
20714;DHT22;10518;50.742;4.226;2023-04-06T09:51:16;10.20;99.90
20714;DHT22;10518;50.742;4.226;2023-04-06T09:53:45;10.30;99.90
20714;DHT22;10518;50.742;4.226;2023-04-06T09:56:17;10.20;99.90
20714;DHT22;10518;50.742;4.226;2023-04-06T09:58:48;10.20;99.90
20714;DHT22;10518;50.742;4.226;2023-04-06T10:01:16;10.20;99.90
20714;DHT22;10518;50.742;4.226;2023-04-06T10:04:00;10.10;99.90
20714;DHT22;10518;50.742;4.226;2023-04-06T10:06:33;10.40;99.90
20714;DHT22;10518;50.742;4.226;2023-04-06T10:09:02;10.70;99.90
20714;DHT22;10518;50.742;4.226;2023-04-06T10:11:30;10.80;99.90
20714;DHT22;10518;50.742;4.226;2023-04-06T10:13:56;10.90;99.90
20714;DHT22;10518;50.742;4.226;2023-04-06T10:16:22;11.00;99.90
20714;DHT22;10518;50.742;4.226;2023-04-06T10:18:54;10.80;99.90
20714;DHT22;10518;50.742;4.226;2023-04-06T10:21:24;10.90;99.90
20714;DHT22;10518;50.742;4.226;2023-04-06T10:23:55;10.90;99.90
20714;DHT22;10518;50.742;4.226;2023-04-06T10:26:23;11.00;99.90
20714;DHT22;10518;50.742;4.226;2023-04-06T10:28:49;11.20;99.90
20714;DHT22;10518;50.742;4.226;2023-04-06T10:31:15;11.20;99.90
20714;DHT22;10518;50.742;4.226;2023-04-06T10:33:41;11.20;99.90
20714;DHT22;10518;50.742;4.226;2023-04-06T10:36:14;11.20;99.90
20714;DHT22;10518;50.742;4.226;2023-04-06T10:38:41;11.10;99.90
20714;DHT22;10518;50.742;4.226;2023-04-06T10:41:11;11.00;99.90
20714;DHT22;10518;50.742;4.226;2023-04-06T10:43:39;11.00;99.90
20714;DHT22;10518;50.742;4.226;2023-04-06T10:46:07;10.90;99.90
20714;DHT22;10518;50.742;4.226;2023-04-06T10:48:45;10.90;99.90
20714;DHT22;10518;50.742;4.226;2023-04-06T10:51:14;10.90;99.90
20714;DHT22;10518;50.742;4.226;2023-04-06T10:53:44;10.90;99.90
20714;DHT22;10518;50.742;4.226;2023-04-06T10:56:13;10.80;99.90
20714;DHT22;10518;50.742;4.226;2023-04-06T10:58:47;10.90;99.90
20714;DHT22;10518;50.742;4.226;2023-04-06T11:01:15;11.20;99.90
20714;DHT22;10518;50.742;4.226;2023-04-06T11:03:45;11.30;99.90
20714;DHT22;10518;50.742;4.226;2023-04-06T11:06:17;11.20;99.90
20714;DHT22;10518;50.742;4.226;2023-04-06T11:08:42;11.10;99.90
20714;DHT22;10518;50.742;4.226;2023-04-06T11:11:11;10.90;99.90
20714;DHT22;10518;50.742;4.226;2023-04-06T11:13:43;11.10;99.90
20714;DHT22;10518;50.742;4.226;2023-04-06T11:16:33;11.10;99.90
20714;DHT22;10518;50.742;4.226;2023-04-06T11:19:00;11.10;99.90
20714;DHT22;10518;50.742;4.226;2023-04-06T11:21:41;11.00;99.90
20714;DHT22;10518;50.742;4.226;2023-04-06T11:24:19;11.20;99.90
20714;DHT22;10518;50.742;4.226;2023-04-06T11:26:47;11.20;99.90
20714;DHT22;10518;50.742;4.226;2023-04-06T11:29:24;11.20;99.90
20714;DHT22;10518;50.742;4.226;2023-04-06T11:31:52;11.20;99.90
20714;DHT22;10518;50.742;4.226;2023-04-06T11:34:23;11.40;99.90
20714;DHT22;10518;50.742;4.226;2023-04-06T11:36:55;11.40;99.90
20714;DHT22;10518;50.742;4.226;2023-04-06T11:39:23;11.50;99.90
20714;DHT22;10518;50.742;4.226;2023-04-06T11:41:53;11.50;99.90
20714;DHT22;10518;50.742;4.226;2023-04-06T11:44:33;11.50;99.90
20714;DHT22;10518;50.742;4.226;2023-04-06T11:47:03;11.50;99.90
20714;DHT22;10518;50.742;4.226;2023-04-06T11:49:30;11.60;99.90
20714;DHT22;10518;50.742;4.226;2023-04-06T11:51:57;11.70;99.90
20714;DHT22;10518;50.742;4.226;2023-04-06T11:54:37;11.70;99.90
20714;DHT22;10518;50.742;4.226;2023-04-06T11:57:07;11.70;99.90
20714;DHT22;10518;50.742;4.226;2023-04-06T11:59:33;11.70;99.90
20714;DHT22;10518;50.742;4.226;2023-04-06T12:01:58;11.80;99.90
20714;DHT22;10518;50.742;4.226;2023-04-06T12:04:24;11.70;99.90
20714;DHT22;10518;50.742;4.226;2023-04-06T12:06:50;11.70;99.90
20714;DHT22;10518;50.742;4.226;2023-04-06T12:09:16;11.70;99.90
20714;DHT22;10518;50.742;4.226;2023-04-06T12:11:45;11.60;99.90
20714;DHT22;10518;50.742;4.226;2023-04-06T12:14:12;11.60;99.90
20714;DHT22;10518;50.742;4.226;2023-04-06T12:16:37;11.60;99.90
20714;DHT22;10518;50.742;4.226;2023-04-06T12:19:03;11.70;99.90
20714;DHT22;10518;50.742;4.226;2023-04-06T12:21:29;11.40;99.90
20714;DHT22;10518;50.742;4.226;2023-04-06T12:23:56;11.40;99.90
20714;DHT22;10518;50.742;4.226;2023-04-06T12:26:22;11.30;99.90
20714;DHT22;10518;50.742;4.226;2023-04-06T12:28:48;11.30;99.90
20714;DHT22;10518;50.742;4.226;2023-04-06T12:31:15;11.40;99.90
20714;DHT22;10518;50.742;4.226;2023-04-06T12:33:41;11.20;99.90
20714;DHT22;10518;50.742;4.226;2023-04-06T12:36:17;11.20;99.90
20714;DHT22;10518;50.742;4.226;2023-04-06T12:38:45;11.10;99.90
20714;DHT22;10518;50.742;4.226;2023-04-06T12:41:11;11.10;99.90
20714;DHT22;10518;50.742;4.226;2023-04-06T12:43:38;11.00;99.90
20714;DHT22;10518;50.742;4.226;2023-04-06T12:46:04;11.00;99.90
20714;DHT22;10518;50.742;4.226;2023-04-06T12:48:30;10.90;99.90
20714;DHT22;10518;50.742;4.226;2023-04-06T12:50:58;11.00;99.90
20714;DHT22;10518;50.742;4.226;2023-04-06T12:53:25;10.80;99.90
20714;DHT22;10518;50.742;4.226;2023-04-06T12:55:51;11.00;99.90
20714;DHT22;10518;50.742;4.226;2023-04-06T12:58:17;10.90;99.90
20714;DHT22;10518;50.742;4.226;2023-04-06T13:00:43;10.90;99.90
20714;DHT22;10518;50.742;4.226;2023-04-06T13:03:08;10.90;99.90
20714;DHT22;10518;50.742;4.226;2023-04-06T13:05:34;10.90;99.90
20714;DHT22;10518;50.742;4.226;2023-04-06T13:08:00;10.90;99.90
20714;DHT22;10518;50.742;4.226;2023-04-06T13:10:26;10.80;99.90
20714;DHT22;10518;50.742;4.226;2023-04-06T13:12:52;10.80;99.90
20714;DHT22;10518;50.742;4.226;2023-04-06T13:15:17;11.00;99.90
20714;DHT22;10518;50.742;4.226;2023-04-06T13:17:43;11.00;99.90
20714;DHT22;10518;50.742;4.226;2023-04-06T13:20:09;11.10;99.90
20714;DHT22;10518;50.742;4.226;2023-04-06T13:22:35;11.10;99.90
20714;DHT22;10518;50.742;4.226;2023-04-06T13:25:01;11.00;99.90
20714;DHT22;10518;50.742;4.226;2023-04-06T13:27:26;11.10;99.90
20714;DHT22;10518;50.742;4.226;2023-04-06T13:29:53;11.20;99.90
20714;DHT22;10518;50.742;4.226;2023-04-06T13:32:19;11.30;99.90
20714;DHT22;10518;50.742;4.226;2023-04-06T13:34:44;11.20;99.90
20714;DHT22;10518;50.742;4.226;2023-04-06T13:37:14;11.10;99.90
20714;DHT22;10518;50.742;4.226;2023-04-06T13:39:41;11.30;99.90
20714;DHT22;10518;50.742;4.226;2023-04-06T13:42:06;11.30;99.90
20714;DHT22;10518;50.742;4.226;2023-04-06T13:44:32;11.30;99.90
20714;DHT22;10518;50.742;4.226;2023-04-06T13:46:58;11.30;99.90
20714;DHT22;10518;50.742;4.226;2023-04-06T13:49:23;11.30;99.90
20714;DHT22;10518;50.742;4.226;2023-04-06T13:51:49;11.30;99.90
20714;DHT22;10518;50.742;4.226;2023-04-06T13:54:15;11.30;99.90
20714;DHT22;10518;50.742;4.226;2023-04-06T13:56:41;11.20;99.90
20714;DHT22;10518;50.742;4.226;2023-04-06T13:59:06;11.30;99.90
20714;DHT22;10518;50.742;4.226;2023-04-06T14:01:32;11.30;99.90
20714;DHT22;10518;50.742;4.226;2023-04-06T14:03:57;11.30;99.90
20714;DHT22;10518;50.742;4.226;2023-04-06T14:06:23;11.10;99.90
20714;DHT22;10518;50.742;4.226;2023-04-06T14:08:48;11.10;99.90
20714;DHT22;10518;50.742;4.226;2023-04-06T14:11:14;11.30;99.90
20714;DHT22;10518;50.742;4.226;2023-04-06T14:13:41;11.30;99.90
20714;DHT22;10518;50.742;4.226;2023-04-06T14:16:07;11.30;99.90
20714;DHT22;10518;50.742;4.226;2023-04-06T14:18:33;11.40;99.90
20714;DHT22;10518;50.742;4.226;2023-04-06T14:20:59;11.50;99.90
20714;DHT22;10518;50.742;4.226;2023-04-06T14:23:27;11.50;99.90
20714;DHT22;10518;50.742;4.226;2023-04-06T14:26:06;11.50;99.90
20714;DHT22;10518;50.742;4.226;2023-04-06T14:28:32;11.60;99.90
20714;DHT22;10518;50.742;4.226;2023-04-06T14:31:08;11.70;99.90
20714;DHT22;10518;50.742;4.226;2023-04-06T14:33:35;11.70;99.90
20714;DHT22;10518;50.742;4.226;2023-04-06T14:36:03;11.80;99.90
20714;DHT22;10518;50.742;4.226;2023-04-06T14:38:28;11.90;99.90
20714;DHT22;10518;50.742;4.226;2023-04-06T14:40:54;11.90;99.90
20714;DHT22;10518;50.742;4.226;2023-04-06T14:43:21;11.90;99.90
20714;DHT22;10518;50.742;4.226;2023-04-06T14:45:47;12.00;99.90
20714;DHT22;10518;50.742;4.226;2023-04-06T14:48:12;12.10;99.90
20714;DHT22;10518;50.742;4.226;2023-04-06T14:50:41;12.10;99.90
20714;DHT22;10518;50.742;4.226;2023-04-06T14:53:11;12.00;99.90
20714;DHT22;10518;50.742;4.226;2023-04-06T14:55:40;12.20;99.90
20714;DHT22;10518;50.742;4.226;2023-04-06T14:58:06;12.30;99.90
20714;DHT22;10518;50.742;4.226;2023-04-06T15:00:32;12.40;99.90
20714;DHT22;10518;50.742;4.226;2023-04-06T15:02:57;12.50;99.90
20714;DHT22;10518;50.742;4.226;2023-04-06T15:05:23;12.60;99.90
20714;DHT22;10518;50.742;4.226;2023-04-06T15:07:49;12.60;99.90
20714;DHT22;10518;50.742;4.226;2023-04-06T15:10:14;12.70;99.90
20714;DHT22;10518;50.742;4.226;2023-04-06T15:12:40;12.90;99.90
20714;DHT22;10518;50.742;4.226;2023-04-06T15:15:06;13.10;99.90
20714;DHT22;10518;50.742;4.226;2023-04-06T15:17:32;13.10;99.90
20714;DHT22;10518;50.742;4.226;2023-04-06T15:19:57;13.20;99.90
20714;DHT22;10518;50.742;4.226;2023-04-06T15:22:23;13.30;99.90
20714;DHT22;10518;50.742;4.226;2023-04-06T15:24:49;13.40;99.90
20714;DHT22;10518;50.742;4.226;2023-04-06T15:27:14;13.50;99.90
20714;DHT22;10518;50.742;4.226;2023-04-06T15:29:40;13.60;99.90
20714;DHT22;10518;50.742;4.226;2023-04-06T15:32:05;13.60;99.90
20714;DHT22;10518;50.742;4.226;2023-04-06T15:34:31;13.60;99.90
20714;DHT22;10518;50.742;4.226;2023-04-06T15:37:01;13.70;99.90
20714;DHT22;10518;50.742;4.226;2023-04-06T15:39:27;13.60;99.90